Airfield :
LOGIN :

Register | Disclaimer

   EN    FR    IT 

 










Legend :    VFR   Marginal VFR   IFR   Intensive IFR   Very Intensive IFR
Visi :
Ceiling :
>= 8 km
>= 3000ft
5 to 8 km
1000 to 3000 ft
1500m to 5 km
500 to 1000 ft
800 to 1500m
200 to 500 ft
< 800m
< 200 ft
Symbols :   Thunderstorms  Fog  Heavy snow  Heavy precipitations  Wind > 20 kt
SIGMETs :     Misc.  Thunderstorms  Icing  Turbulence  Mountain Waves  Volcanic Ashes






- Airport Elevation : 325 ft
- IATA code : BES


LFRB - Brest

CURRENT METAR :
  • 241930Z AUTO 32006KT 9999 BKN025 BKN032 13/08 Q1015 NOSIG

EXPIRED METARs :
  • 241900Z AUTO 31006KT 9999 FEW022 14/09 Q1014 NOSIG
  • 241830Z AUTO 31008KT 280V340 9999 BKN024 BKN033 BKN043 14/09 Q1014 NOSIG
  • 241800Z AUTO 31010KT 9999 SCT027 SCT043 14/09 Q1014 NOSIG
  • 241730Z AUTO 31009KT 9999 SCT027 SCT033 14/08 Q1013 NOSIG
  • 241700Z AUTO 32009KT 9999 BKN031 16/08 Q1013 NOSIG

TAF TAF LFRB
Valid from the 24 at 18:00 until the 26 at 00:00 UTC


241700Z 2418/2524 31008KT 9999 FEW030
BECMG 2420/2422 25005KT
PROB40
TEMPO 2506/2510 -RA BKN009
BECMG 2510/2512 27012KT
PROB40
TEMPO 2509/2518 27015G25KT
PROB40
TEMPO 2518/2524 BKN009
ATIS : +33 2 98 32 02 71



MET'MAP, your aeronautical weather chart ! - Copyright ORBIFLY December 2007 - Disclaimer

ORBIFLY MET'MAP TEAM :

Programming & Development : Alexandra Zaïnal
Original concept : Baudouin d'Aumeries
Technical & hardware support : Manuel Goepfert
Assistance : Marc-Olivier Méhu

Contact : metmap@orbifly.com




SOURCES & CREDITS :

   NOAA